sensor_id;sensor_type;location;lat;lon;timestamp;pressure;altitude;pressure_sealevel;temperature;humidity
38022;BME280;23832;43.216;27.946;2023-05-10T00:00:20;101436.94;;;13.52;100.00
38022;BME280;23832;43.216;27.946;2023-05-10T00:02:24;101433.63;;;13.50;100.00
38022;BME280;23832;43.216;27.946;2023-05-10T00:04:29;101430.63;;;13.53;100.00
38022;BME280;23832;43.216;27.946;2023-05-10T00:06:32;101425.84;;;13.57;100.00
38022;BME280;23832;43.216;27.946;2023-05-10T00:08:38;101421.84;;;13.53;100.00
38022;BME280;23832;43.216;27.946;2023-05-10T00:10:40;101425.38;;;13.45;100.00
38022;BME280;23832;43.216;27.946;2023-05-10T00:12:42;101421.44;;;13.41;100.00
38022;BME280;23832;43.216;27.946;2023-05-10T00:14:45;101429.66;;;13.46;100.00
38022;BME280;23832;43.216;27.946;2023-05-10T00:16:47;101422.44;;;13.40;100.00
38022;BME280;23832;43.216;27.946;2023-05-10T00:18:52;101423.50;;;13.54;100.00
38022;BME280;23832;43.216;27.946;2023-05-10T00:21:00;101421.66;;;13.62;100.00
38022;BME280;23832;43.216;27.946;2023-05-10T00:23:02;101422.72;;;13.45;100.00
38022;BME280;23832;43.216;27.946;2023-05-10T00:25:05;101419.44;;;13.43;100.00
38022;BME280;23832;43.216;27.946;2023-05-10T00:27:10;101419.34;;;13.59;100.00
38022;BME280;23832;43.216;27.946;2023-05-10T00:29:18;101420.78;;;13.39;100.00
38022;BME280;23832;43.216;27.946;2023-05-10T00:31:22;101418.78;;;13.41;100.00
38022;BME280;23832;43.216;27.946;2023-05-10T00:33:27;101425.59;;;13.27;100.00
38022;BME280;23832;43.216;27.946;2023-05-10T00:35:29;101414.69;;;13.30;100.00
38022;BME280;23832;43.216;27.946;2023-05-10T00:37:41;101419.69;;;13.09;100.00
38022;BME280;23832;43.216;27.946;2023-05-10T00:39:46;101414.41;;;12.93;100.00
38022;BME280;23832;43.216;27.946;2023-05-10T00:41:50;101421.47;;;13.17;100.00
38022;BME280;23832;43.216;27.946;2023-05-10T00:43:53;101418.84;;;13.08;100.00
38022;BME280;23832;43.216;27.946;2023-05-10T00:45:57;101413.38;;;13.26;100.00
38022;BME280;23832;43.216;27.946;2023-05-10T00:48:01;101405.00;;;12.90;100.00
38022;BME280;23832;43.216;27.946;2023-05-10T00:50:04;101411.22;;;13.30;100.00
38022;BME280;23832;43.216;27.946;2023-05-10T00:52:10;101412.06;;;13.14;100.00
38022;BME280;23832;43.216;27.946;2023-05-10T00:54:14;101413.94;;;12.89;100.00
38022;BME280;23832;43.216;27.946;2023-05-10T00:56:16;101410.88;;;13.17;100.00
38022;BME280;23832;43.216;27.946;2023-05-10T00:58:23;101404.81;;;13.00;100.00
38022;BME280;23832;43.216;27.946;2023-05-10T01:00:28;101411.50;;;13.35;100.00
38022;BME280;23832;43.216;27.946;2023-05-10T01:02:30;101404.09;;;13.30;100.00
38022;BME280;23832;43.216;27.946;2023-05-10T01:04:33;101402.91;;;13.33;100.00
38022;BME280;23832;43.216;27.946;2023-05-10T01:06:37;101398.06;;;13.45;100.00
38022;BME280;23832;43.216;27.946;2023-05-10T01:08:40;101397.31;;;13.28;100.00
38022;BME280;23832;43.216;27.946;2023-05-10T01:10:45;101398.84;;;13.53;100.00
38022;BME280;23832;43.216;27.946;2023-05-10T01:12:49;101400.03;;;13.51;100.00
38022;BME280;23832;43.216;27.946;2023-05-10T01:14:55;101406.97;;;13.52;100.00
38022;BME280;23832;43.216;27.946;2023-05-10T01:17:00;101405.53;;;13.41;100.00
38022;BME280;23832;43.216;27.946;2023-05-10T01:19:12;101398.09;;;13.37;100.00
38022;BME280;23832;43.216;27.946;2023-05-10T01:21:19;101405.78;;;13.54;100.00
38022;BME280;23832;43.216;27.946;2023-05-10T01:23:37;101403.63;;;13.58;100.00
38022;BME280;23832;43.216;27.946;2023-05-10T01:28:32;101400.81;;;13.59;100.00
38022;BME280;23832;43.216;27.946;2023-05-10T01:33:00;101400.63;;;13.61;100.00
38022;BME280;23832;43.216;27.946;2023-05-10T01:35:06;101401.28;;;13.63;100.00
38022;BME280;23832;43.216;27.946;2023-05-10T01:37:13;101398.88;;;13.45;100.00
38022;BME280;23832;43.216;27.946;2023-05-10T01:39:17;101400.84;;;13.51;100.00
38022;BME280;23832;43.216;27.946;2023-05-10T01:41:24;101401.88;;;13.42;100.00
38022;BME280;23832;43.216;27.946;2023-05-10T01:43:35;101401.72;;;13.44;100.00
38022;BME280;23832;43.216;27.946;2023-05-10T01:45:54;101396.94;;;13.39;100.00
38022;BME280;23832;43.216;27.946;2023-05-10T01:48:19;101400.44;;;13.31;100.00
38022;BME280;23832;43.216;27.946;2023-05-10T01:50:22;101390.06;;;13.22;100.00
38022;BME280;23832;43.216;27.946;2023-05-10T01:52:30;101397.81;;;13.31;100.00
38022;BME280;23832;43.216;27.946;2023-05-10T01:54:37;101406.03;;;13.37;100.00
38022;BME280;23832;43.216;27.946;2023-05-10T01:56:45;101397.81;;;13.31;100.00
38022;BME280;23832;43.216;27.946;2023-05-10T01:58:51;101406.59;;;13.24;100.00
38022;BME280;23832;43.216;27.946;2023-05-10T02:00:54;101394.53;;;13.13;100.00
38022;BME280;23832;43.216;27.946;2023-05-10T02:03:00;101397.84;;;13.07;100.00
38022;BME280;23832;43.216;27.946;2023-05-10T02:05:16;101392.84;;;13.20;100.00
38022;BME280;23832;43.216;27.946;2023-05-10T02:07:20;101395.16;;;13.31;100.00
38022;BME280;23832;43.216;27.946;2023-05-10T02:09:23;101388.03;;;13.32;100.00
38022;BME280;23832;43.216;27.946;2023-05-10T02:11:27;101400.91;;;13.35;100.00
38022;BME280;23832;43.216;27.946;2023-05-10T02:13:31;101396.28;;;13.29;100.00
38022;BME280;23832;43.216;27.946;2023-05-10T02:15:36;101402.63;;;13.12;100.00
38022;BME280;23832;43.216;27.946;2023-05-10T02:17:40;101399.94;;;13.28;100.00
38022;BME280;23832;43.216;27.946;2023-05-10T02:19:44;101392.19;;;13.26;100.00
38022;BME280;23832;43.216;27.946;2023-05-10T02:21:50;101404.13;;;13.22;100.00
38022;BME280;23832;43.216;27.946;2023-05-10T02:23:52;101406.00;;;12.89;100.00
38022;BME280;23832;43.216;27.946;2023-05-10T02:25:56;101403.00;;;13.00;100.00
38022;BME280;23832;43.216;27.946;2023-05-10T02:28:02;101404.28;;;13.13;100.00
38022;BME280;23832;43.216;27.946;2023-05-10T02:30:05;101402.72;;;12.87;100.00
38022;BME280;23832;43.216;27.946;2023-05-10T02:32:08;101412.31;;;12.72;100.00
38022;BME280;23832;43.216;27.946;2023-05-10T02:34:15;101398.53;;;12.93;100.00
38022;BME280;23832;43.216;27.946;2023-05-10T02:36:21;101398.06;;;12.89;100.00
38022;BME280;23832;43.216;27.946;2023-05-10T02:38:27;101396.56;;;12.95;100.00
38022;BME280;23832;43.216;27.946;2023-05-10T02:40:30;101397.72;;;12.92;100.00
38022;BME280;23832;43.216;27.946;2023-05-10T02:42:37;101402.72;;;12.87;100.00
38022;BME280;23832;43.216;27.946;2023-05-10T02:44:42;101398.53;;;12.93;100.00
38022;BME280;23832;43.216;27.946;2023-05-10T02:46:44;101395.91;;;12.93;100.00
38022;BME280;23832;43.216;27.946;2023-05-10T02:48:47;101403.94;;;13.16;100.00
38022;BME280;23832;43.216;27.946;2023-05-10T02:50:54;101402.97;;;13.08;100.00
38022;BME280;23832;43.216;27.946;2023-05-10T02:53:01;101401.78;;;13.11;100.00
38022;BME280;23832;43.216;27.946;2023-05-10T02:55:08;101409.06;;;13.17;100.00
38022;BME280;23832;43.216;27.946;2023-05-10T02:57:13;101404.94;;;13.15;100.00
38022;BME280;23832;43.216;27.946;2023-05-10T02:59:31;101405.13;;;13.13;100.00
38022;BME280;23832;43.216;27.946;2023-05-10T03:01:34;101409.53;;;13.29;100.00
38022;BME280;23832;43.216;27.946;2023-05-10T03:03:39;101406.03;;;13.37;100.00
38022;BME280;23832;43.216;27.946;2023-05-10T03:05:50;101406.03;;;13.37;100.00
38022;BME280;23832;43.216;27.946;2023-05-10T03:07:54;101405.78;;;13.54;100.00
38022;BME280;23832;43.216;27.946;2023-05-10T03:09:56;101418.34;;;13.60;100.00
38022;BME280;23832;43.216;27.946;2023-05-10T03:12:10;101413.88;;;13.61;100.00
38022;BME280;23832;43.216;27.946;2023-05-10T03:14:16;101413.06;;;13.83;100.00
38022;BME280;23832;43.216;27.946;2023-05-10T03:16:22;101416.84;;;13.89;100.00
38022;BME280;23832;43.216;27.946;2023-05-10T03:18:37;101413.84;;;13.92;100.00
38022;BME280;23832;43.216;27.946;2023-05-10T03:20:46;101412.50;;;13.96;100.00
38022;BME280;23832;43.216;27.946;2023-05-10T03:22:51;101415.16;;;13.96;100.00
38022;BME280;23832;43.216;27.946;2023-05-10T03:24:56;101416.16;;;13.95;100.00
38022;BME280;23832;43.216;27.946;2023-05-10T03:26:59;101418.41;;;14.06;100.00
38022;BME280;23832;43.216;27.946;2023-05-10T03:29:19;101410.16;;;14.24;100.00
38022;BME280;23832;43.216;27.946;2023-05-10T03:31:24;101417.84;;;14.34;100.00
38022;BME280;23832;43.216;27.946;2023-05-10T03:33:29;101411.44;;;14.28;100.00
38022;BME280;23832;43.216;27.946;2023-05-10T03:35:32;101409.19;;;14.40;100.00
38022;BME280;23832;43.216;27.946;2023-05-10T03:37:34;101418.13;;;14.62;100.00
38022;BME280;23832;43.216;27.946;2023-05-10T03:39:36;101415.66;;;14.60;100.00
38022;BME280;23832;43.216;27.946;2023-05-10T03:41:38;101412.13;;;14.68;100.00
38022;BME280;23832;43.216;27.946;2023-05-10T03:43:42;101422.03;;;14.89;100.00
38022;BME280;23832;43.216;27.946;2023-05-10T03:45:45;101417.75;;;15.02;100.00
38022;BME280;23832;43.216;27.946;2023-05-10T03:47:49;101416.63;;;14.97;100.00
38022;BME280;23832;43.216;27.946;2023-05-10T03:49:58;101424.06;;;15.01;100.00
38022;BME280;23832;43.216;27.946;2023-05-10T03:52:02;101423.31;;;14.93;100.00
38022;BME280;23832;43.216;27.946;2023-05-10T03:54:17;101431.09;;;15.09;100.00
38022;BME280;23832;43.216;27.946;2023-05-10T03:56:20;101424.22;;;15.15;100.00
38022;BME280;23832;43.216;27.946;2023-05-10T03:58:24;101427.53;;;15.17;100.00
38022;BME280;23832;43.216;27.946;2023-05-10T04:00:29;101427.47;;;15.10;100.00
38022;BME280;23832;43.216;27.946;2023-05-10T04:02:35;101428.09;;;15.12;100.00
38022;BME280;23832;43.216;27.946;2023-05-10T04:04:37;101427.25;;;15.26;100.00
38022;BME280;23832;43.216;27.946;2023-05-10T04:06:52;101432.28;;;15.36;100.00
38022;BME280;23832;43.216;27.946;2023-05-10T04:11:26;101432.13;;;15.23;100.00
38022;BME280;23832;43.216;27.946;2023-05-10T04:13:36;101430.50;;;15.58;100.00
38022;BME280;23832;43.216;27.946;2023-05-10T04:15:48;101428.69;;;15.73;100.00
38022;BME280;23832;43.216;27.946;2023-05-10T04:17:56;101417.16;;;15.66;100.00
38022;BME280;23832;43.216;27.946;2023-05-10T04:19:57;101424.31;;;15.87;100.00
38022;BME280;23832;43.216;27.946;2023-05-10T04:22:04;101427.50;;;15.97;100.00
38022;BME280;23832;43.216;27.946;2023-05-10T04:24:08;101427.53;;;16.18;100.00
38022;BME280;23832;43.216;27.946;2023-05-10T04:26:10;101426.06;;;16.37;100.00
38022;BME280;23832;43.216;27.946;2023-05-10T04:28:16;101433.94;;;16.52;100.00
38022;BME280;23832;43.216;27.946;2023-05-10T04:30:18;101429.00;;;16.49;100.00
38022;BME280;23832;43.216;27.946;2023-05-10T04:32:20;101426.81;;;16.31;100.00
38022;BME280;23832;43.216;27.946;2023-05-10T04:34:25;101431.25;;;16.24;100.00
38022;BME280;23832;43.216;27.946;2023-05-10T04:36:27;101428.53;;;16.39;100.00
38022;BME280;23832;43.216;27.946;2023-05-10T04:38:34;101428.69;;;16.59;100.00
38022;BME280;23832;43.216;27.946;2023-05-10T04:40:36;101429.94;;;16.63;100.00
38022;BME280;23832;43.216;27.946;2023-05-10T04:42:39;101426.09;;;16.93;100.00
38022;BME280;23832;43.216;27.946;2023-05-10T04:44:41;101425.78;;;17.16;97.51
38022;BME280;23832;43.216;27.946;2023-05-10T04:46:44;101424.41;;;17.20;96.88
38022;BME280;23832;43.216;27.946;2023-05-10T04:48:55;101419.72;;;17.29;95.49
38022;BME280;23832;43.216;27.946;2023-05-10T04:51:03;101434.13;;;17.41;93.35
38022;BME280;23832;43.216;27.946;2023-05-10T04:53:06;101415.25;;;17.36;90.59
38022;BME280;23832;43.216;27.946;2023-05-10T04:55:09;101428.41;;;17.51;90.03
38022;BME280;23832;43.216;27.946;2023-05-10T04:57:13;101427.19;;;17.47;89.74
38022;BME280;23832;43.216;27.946;2023-05-10T04:59:16;101422.34;;;17.22;90.46
38022;BME280;23832;43.216;27.946;2023-05-10T05:01:23;101423.47;;;17.35;86.31
38022;BME280;23832;43.216;27.946;2023-05-10T05:03:31;101419.41;;;17.52;92.48
38022;BME280;23832;43.216;27.946;2023-05-10T05:05:34;101419.34;;;17.80;94.34
38022;BME280;23832;43.216;27.946;2023-05-10T05:07:42;101410.91;;;17.76;89.11
38022;BME280;23832;43.216;27.946;2023-05-10T05:09:45;101421.94;;;17.67;87.27
38022;BME280;23832;43.216;27.946;2023-05-10T05:11:50;101424.28;;;17.96;83.51
38022;BME280;23832;43.216;27.946;2023-05-10T05:13:53;101421.22;;;18.06;78.78
38022;BME280;23832;43.216;27.946;2023-05-10T05:15:55;101418.38;;;18.40;76.91
38022;BME280;23832;43.216;27.946;2023-05-10T05:18:03;101420.44;;;18.32;75.50
38022;BME280;23832;43.216;27.946;2023-05-10T05:20:06;101419.19;;;18.21;74.49
38022;BME280;23832;43.216;27.946;2023-05-10T05:22:14;101422.50;;;18.36;73.79
38022;BME280;23832;43.216;27.946;2023-05-10T05:24:29;101427.19;;;18.21;75.67
38022;BME280;23832;43.216;27.946;2023-05-10T05:26:31;101461.31;;;18.39;73.01
38022;BME280;23832;43.216;27.946;2023-05-10T05:28:33;101429.47;;;18.24;75.10
38022;BME280;23832;43.216;27.946;2023-05-10T05:30:42;101426.59;;;18.19;72.23
38022;BME280;23832;43.216;27.946;2023-05-10T05:32:44;101434.56;;;18.06;74.54
38022;BME280;23832;43.216;27.946;2023-05-10T05:34:47;101428.66;;;18.63;71.71
38022;BME280;23832;43.216;27.946;2023-05-10T05:36:49;101428.66;;;18.77;71.12
38022;BME280;23832;43.216;27.946;2023-05-10T05:38:51;101423.53;;;18.82;71.58
38022;BME280;23832;43.216;27.946;2023-05-10T05:40:55;101424.97;;;18.84;72.13
38022;BME280;23832;43.216;27.946;2023-05-10T05:42:57;101432.94;;;19.04;69.68
38022;BME280;23832;43.216;27.946;2023-05-10T05:44:59;101425.53;;;19.06;67.74
38022;BME280;23832;43.216;27.946;2023-05-10T05:47:02;101423.97;;;19.43;65.62
38022;BME280;23832;43.216;27.946;2023-05-10T05:49:05;101422.56;;;19.34;65.38
38022;BME280;23832;43.216;27.946;2023-05-10T05:51:08;101429.72;;;19.47;65.19
38022;BME280;23832;43.216;27.946;2023-05-10T05:53:13;101438.53;;;19.54;64.40
38022;BME280;23832;43.216;27.946;2023-05-10T05:55:19;101427.84;;;19.99;62.72
38022;BME280;23832;43.216;27.946;2023-05-10T05:57:31;101418.56;;;19.50;63.22
38022;BME280;23832;43.216;27.946;2023-05-10T05:59:34;101434.38;;;19.71;61.53
38022;BME280;23832;43.216;27.946;2023-05-10T06:01:43;101436.22;;;19.71;60.83
38022;BME280;23832;43.216;27.946;2023-05-10T06:03:45;101430.06;;;19.70;61.42
38022;BME280;23832;43.216;27.946;2023-05-10T06:06:03;101428.78;;;19.73;60.35
38022;BME280;23832;43.216;27.946;2023-05-10T06:08:08;101433.94;;;19.74;62.39
38022;BME280;23832;43.216;27.946;2023-05-10T06:10:11;101424.94;;;20.57;59.93
38022;BME280;23832;43.216;27.946;2023-05-10T06:12:14;101438.44;;;20.44;60.01
38022;BME280;23832;43.216;27.946;2023-05-10T06:14:21;101427.47;;;20.52;59.97
38022;BME280;23832;43.216;27.946;2023-05-10T06:16:23;101428.41;;;20.82;58.89
38022;BME280;23832;43.216;27.946;2023-05-10T06:18:27;101439.03;;;20.95;58.37
38022;BME280;23832;43.216;27.946;2023-05-10T06:20:34;101441.81;;;20.82;57.35
38022;BME280;23832;43.216;27.946;2023-05-10T06:22:38;101431.94;;;20.58;57.19
38022;BME280;23832;43.216;27.946;2023-05-10T06:24:44;101438.41;;;20.50;56.35
38022;BME280;23832;43.216;27.946;2023-05-10T06:26:49;101436.31;;;20.77;55.15
38022;BME280;23832;43.216;27.946;2023-05-10T06:28:51;101438.75;;;20.79;55.03
38022;BME280;23832;43.216;27.946;2023-05-10T06:30:59;101447.22;;;20.26;55.31
38022;BME280;23832;43.216;27.946;2023-05-10T06:33:02;101437.91;;;20.85;53.69
38022;BME280;23832;43.216;27.946;2023-05-10T06:35:06;101435.38;;;20.65;53.06
38022;BME280;23832;43.216;27.946;2023-05-10T06:37:09;101435.38;;;20.65;53.50
38022;BME280;23832;43.216;27.946;2023-05-10T06:39:16;101439.38;;;20.99;53.32
38022;BME280;23832;43.216;27.946;2023-05-10T06:41:20;101441.00;;;21.00;52.96
38022;BME280;23832;43.216;27.946;2023-05-10T06:43:24;101440.78;;;21.57;51.24
38022;BME280;23832;43.216;27.946;2023-05-10T06:45:28;101434.44;;;21.39;51.70
38022;BME280;23832;43.216;27.946;2023-05-10T06:47:38;101439.81;;;21.99;50.73
38022;BME280;23832;43.216;27.946;2023-05-10T06:49:40;101454.91;;;21.82;51.31
38022;BME280;23832;43.216;27.946;2023-05-10T06:51:45;101443.50;;;22.17;49.92
38022;BME280;23832;43.216;27.946;2023-05-10T06:53:56;101445.44;;;22.40;49.68
38022;BME280;23832;43.216;27.946;2023-05-10T06:55:58;101439.44;;;22.37;48.71
38022;BME280;23832;43.216;27.946;2023-05-10T06:58:02;101445.09;;;22.48;47.54
38022;BME280;23832;43.216;27.946;2023-05-10T07:00:06;101452.44;;;22.29;47.87
38022;BME280;23832;43.216;27.946;2023-05-10T07:02:09;101447.44;;;22.56;47.21
38022;BME280;23832;43.216;27.946;2023-05-10T07:04:16;101442.63;;;22.46;47.66
38022;BME280;23832;43.216;27.946;2023-05-10T07:06:20;101447.66;;;22.43;47.32
38022;BME280;23832;43.216;27.946;2023-05-10T07:08:22;101441.88;;;22.27;48.63
38022;BME280;23832;43.216;27.946;2023-05-10T07:10:24;101451.03;;;22.73;47.46
38022;BME280;23832;43.216;27.946;2023-05-10T07:12:27;101450.94;;;22.68;48.07
38022;BME280;23832;43.216;27.946;2023-05-10T07:14:30;101451.63;;;22.40;47.45
38022;BME280;23832;43.216;27.946;2023-05-10T07:16:33;101456.28;;;23.27;46.82
38022;BME280;23832;43.216;27.946;2023-05-10T07:18:37;101450.72;;;23.05;47.42
38022;BME280;23832;43.216;27.946;2023-05-10T07:20:44;101458.78;;;23.05;46.41
38022;BME280;23832;43.216;27.946;2023-05-10T07:22:46;101456.56;;;23.13;46.93
38022;BME280;23832;43.216;27.946;2023-05-10T07:24:48;101447.59;;;24.50;44.46
38022;BME280;23832;43.216;27.946;2023-05-10T07:26:50;101457.19;;;24.13;43.61
38022;BME280;23832;43.216;27.946;2023-05-10T07:28:53;101459.59;;;23.05;46.11
38022;BME280;23832;43.216;27.946;2023-05-10T07:30:55;101466.25;;;22.79;47.01
38022;BME280;23832;43.216;27.946;2023-05-10T07:32:58;101467.31;;;22.13;48.37
38022;BME280;23832;43.216;27.946;2023-05-10T07:35:01;101461.84;;;21.90;49.21
38022;BME280;23832;43.216;27.946;2023-05-10T07:37:06;101466.81;;;22.46;48.77
38022;BME280;23832;43.216;27.946;2023-05-10T07:39:10;101473.69;;;22.42;49.19
38022;BME280;23832;43.216;27.946;2023-05-10T07:41:13;101463.22;;;22.99;48.14
38022;BME280;23832;43.216;27.946;2023-05-10T07:43:15;101481.28;;;23.62;47.69
38022;BME280;23832;43.216;27.946;2023-05-10T07:45:17;101475.66;;;23.52;47.49
38022;BME280;23832;43.216;27.946;2023-05-10T07:47:20;101469.84;;;24.29;45.95
38022;BME280;23832;43.216;27.946;2023-05-10T07:49:25;101478.31;;;22.65;48.12
38022;BME280;23832;43.216;27.946;2023-05-10T07:51:35;101471.59;;;22.44;49.38
38022;BME280;23832;43.216;27.946;2023-05-10T07:53:41;101470.59;;;21.85;49.51
38022;BME280;23832;43.216;27.946;2023-05-10T07:55:50;101474.91;;;22.70;48.90
38022;BME280;23832;43.216;27.946;2023-05-10T07:57:56;101471.75;;;21.59;51.03
38022;BME280;23832;43.216;27.946;2023-05-10T08:00:11;101469.94;;;21.16;51.68
38022;BME280;23832;43.216;27.946;2023-05-10T08:02:22;101468.53;;;21.50;51.07
38022;BME280;23832;43.216;27.946;2023-05-10T08:04:27;101472.41;;;21.36;51.09
38022;BME280;23832;43.216;27.946;2023-05-10T08:06:30;101471.59;;;22.02;50.57
38022;BME280;23832;43.216;27.946;2023-05-10T08:08:33;101472.69;;;23.13;48.94
38022;BME280;23832;43.216;27.946;2023-05-10T08:10:44;101468.84;;;22.98;46.57
38022;BME280;23832;43.216;27.946;2023-05-10T08:12:47;101474.75;;;23.35;46.42
38022;BME280;23832;43.216;27.946;2023-05-10T08:14:51;101474.50;;;23.48;46.85
38022;BME280;23832;43.216;27.946;2023-05-10T08:16:54;101484.28;;;23.14;48.55
38022;BME280;23832;43.216;27.946;2023-05-10T08:18:59;101481.31;;;23.91;46.92
38022;BME280;23832;43.216;27.946;2023-05-10T08:21:02;101482.19;;;23.04;48.09
38022;BME280;23832;43.216;27.946;2023-05-10T08:23:04;101476.56;;;24.94;45.64
38022;BME280;23832;43.216;27.946;2023-05-10T08:25:06;101492.94;;;24.37;46.15
38022;BME280;23832;43.216;27.946;2023-05-10T08:27:10;101487.72;;;24.18;46.07
38022;BME280;23832;43.216;27.946;2023-05-10T08:29:13;101513.34;;;24.83;45.33
38022;BME280;23832;43.216;27.946;2023-05-10T08:31:21;101486.97;;;25.24;43.97
38022;BME280;23832;43.216;27.946;2023-05-10T08:33:27;101495.00;;;25.02;43.58
38022;BME280;23832;43.216;27.946;2023-05-10T08:35:34;101491.75;;;25.60;43.40
38022;BME280;23832;43.216;27.946;2023-05-10T08:37:36;101492.59;;;26.10;43.15
38022;BME280;23832;43.216;27.946;2023-05-10T08:39:39;101492.13;;;26.18;42.03
38022;BME280;23832;43.216;27.946;2023-05-10T08:41:46;101503.19;;;25.89;42.06
38022;BME280;23832;43.216;27.946;2023-05-10T08:43:55;101502.72;;;24.43;44.94
38022;BME280;23832;43.216;27.946;2023-05-10T08:45:59;101489.25;;;24.14;45.31
38022;BME280;23832;43.216;27.946;2023-05-10T08:48:03;101500.53;;;23.07;46.88
38022;BME280;23832;43.216;27.946;2023-05-10T08:50:07;101504.47;;;22.70;48.29
38022;BME280;23832;43.216;27.946;2023-05-10T08:52:11;101491.13;;;21.91;49.12
38022;BME280;23832;43.216;27.946;2023-05-10T08:54:17;101505.81;;;21.59;49.58
38022;BME280;23832;43.216;27.946;2023-05-10T08:56:19;101497.59;;;22.74;48.41
38022;BME280;23832;43.216;27.946;2023-05-10T08:58:28;101505.34;;;22.40;48.35
38022;BME280;23832;43.216;27.946;2023-05-10T09:00:56;101504.44;;;21.86;49.69
38022;BME280;23832;43.216;27.946;2023-05-10T09:03:04;101507.00;;;23.58;47.22
38022;BME280;23832;43.216;27.946;2023-05-10T09:05:06;101496.81;;;22.85;48.16
38022;BME280;23832;43.216;27.946;2023-05-10T09:07:12;101498.19;;;22.99;48.15
38022;BME280;23832;43.216;27.946;2023-05-10T09:09:16;101500.38;;;24.46;45.72
38022;BME280;23832;43.216;27.946;2023-05-10T09:11:18;101498.22;;;24.99;44.11
38022;BME280;23832;43.216;27.946;2023-05-10T09:13:23;101503.66;;;25.81;42.47
38022;BME280;23832;43.216;27.946;2023-05-10T09:15:27;101489.44;;;26.45;41.93
38022;BME280;23832;43.216;27.946;2023-05-10T09:17:31;101496.34;;;26.68;41.24
38022;BME280;23832;43.216;27.946;2023-05-10T09:19:36;101483.84;;;27.41;39.95
38022;BME280;23832;43.216;27.946;2023-05-10T09:21:38;101487.78;;;25.68;41.35
38022;BME280;23832;43.216;27.946;2023-05-10T09:23:42;101489.47;;;25.96;41.10
38022;BME280;23832;43.216;27.946;2023-05-10T09:25:46;101477.69;;;25.58;40.34
38022;BME280;23832;43.216;27.946;2023-05-10T09:27:49;101480.00;;;25.93;40.01
38022;BME280;23832;43.216;27.946;2023-05-10T09:29:56;101498.84;;;26.74;38.94
38022;BME280;23832;43.216;27.946;2023-05-10T09:32:01;101486.03;;;26.00;39.09
38022;BME280;23832;43.216;27.946;2023-05-10T09:34:07;101493.38;;;26.37;38.72
38022;BME280;23832;43.216;27.946;2023-05-10T09:36:16;101492.22;;;26.55;37.75
38022;BME280;23832;43.216;27.946;2023-05-10T09:38:24;101489.53;;;27.50;37.47
38022;BME280;23832;43.216;27.946;2023-05-10T09:40:30;101504.09;;;28.21;36.05
38022;BME280;23832;43.216;27.946;2023-05-10T09:42:36;101498.38;;;27.30;36.17
38022;BME280;23832;43.216;27.946;2023-05-10T09:44:45;101489.63;;;27.07;35.71
38022;BME280;23832;43.216;27.946;2023-05-10T09:46:49;101492.03;;;26.08;36.72
38022;BME280;23832;43.216;27.946;2023-05-10T09:48:59;101499.56;;;27.02;35.72
38022;BME280;23832;43.216;27.946;2023-05-10T09:51:16;101492.34;;;26.38;37.03
38022;BME280;23832;43.216;27.946;2023-05-10T09:53:20;101489.47;;;26.87;37.01
38022;BME280;23832;43.216;27.946;2023-05-10T09:55:25;101489.78;;;26.53;37.58
38022;BME280;23832;43.216;27.946;2023-05-10T09:57:29;101492.19;;;26.92;36.76
38022;BME280;23832;43.216;27.946;2023-05-10T09:59:33;101502.91;;;27.66;36.52
38022;BME280;23832;43.216;27.946;2023-05-10T10:01:36;101492.16;;;27.29;36.88
38022;BME280;23832;43.216;27.946;2023-05-10T10:03:41;101486.09;;;26.70;38.31
38022;BME280;23832;43.216;27.946;2023-05-10T10:05:44;101490.34;;;25.14;39.12
38022;BME280;23832;43.216;27.946;2023-05-10T10:07:50;101486.19;;;25.06;39.21
38022;BME280;23832;43.216;27.946;2023-05-10T10:09:53;101510.56;;;24.95;39.10
38022;BME280;23832;43.216;27.946;2023-05-10T10:14:29;101498.22;;;25.37;37.19
38022;BME280;23832;43.216;27.946;2023-05-10T10:16:31;101502.16;;;26.86;35.44
38022;BME280;23832;43.216;27.946;2023-05-10T10:18:34;101495.66;;;26.82;35.73
38022;BME280;23832;43.216;27.946;2023-05-10T10:20:39;101498.50;;;27.03;35.17
38022;BME280;23832;43.216;27.946;2023-05-10T10:22:42;101501.81;;;26.78;34.60
38022;BME280;23832;43.216;27.946;2023-05-10T10:24:47;101501.28;;;27.13;34.21
38022;BME280;23832;43.216;27.946;2023-05-10T10:26:53;101493.97;;;26.39;34.94
38022;BME280;23832;43.216;27.946;2023-05-10T10:29:10;101493.34;;;25.78;35.56
38022;BME280;23832;43.216;27.946;2023-05-10T10:31:18;101490.72;;;26.10;35.63
38022;BME280;23832;43.216;27.946;2023-05-10T10:33:39;101496.63;;;27.03;34.83
38022;BME280;23832;43.216;27.946;2023-05-10T10:35:46;101500.84;;;28.14;34.12
38022;BME280;23832;43.216;27.946;2023-05-10T10:37:49;101503.78;;;25.96;36.63
38022;BME280;23832;43.216;27.946;2023-05-10T10:39:54;101492.53;;;26.04;36.80
38022;BME280;23832;43.216;27.946;2023-05-10T10:41:57;101500.78;;;26.84;35.63
38022;BME280;23832;43.216;27.946;2023-05-10T10:46:24;101493.25;;;25.07;36.81
38022;BME280;23832;43.216;27.946;2023-05-10T10:48:28;101494.97;;;26.33;35.73
38022;BME280;23832;43.216;27.946;2023-05-10T10:50:30;101488.72;;;26.32;36.91
38022;BME280;23832;43.216;27.946;2023-05-10T10:52:38;101491.88;;;25.92;37.14
38022;BME280;23832;43.216;27.946;2023-05-10T10:54:47;101493.34;;;25.34;37.78